sensor_id;sensor_type;location;lat;lon;timestamp;P1;durP1;ratioP1;P2;durP2;ratioP2
53652;SDS011;39553;52.954;5.932;2022-07-06T00:01:29;7.88;;;2.13;;
53652;SDS011;39553;52.954;5.932;2022-07-06T00:03:55;5.25;;;1.90;;
53652;SDS011;39553;52.954;5.932;2022-07-06T00:06:20;4.78;;;1.60;;
53652;SDS011;39553;52.954;5.932;2022-07-06T00:08:47;4.97;;;2.15;;
53652;SDS011;39553;52.954;5.932;2022-07-06T00:11:12;4.00;;;2.42;;
53652;SDS011;39553;52.954;5.932;2022-07-06T00:13:38;6.05;;;2.22;;
53652;SDS011;39553;52.954;5.932;2022-07-06T00:16:04;5.45;;;1.95;;
53652;SDS011;39553;52.954;5.932;2022-07-06T00:18:30;6.68;;;1.60;;
53652;SDS011;39553;52.954;5.932;2022-07-06T00:20:56;2.38;;;1.15;;
53652;SDS011;39553;52.954;5.932;2022-07-06T00:23:22;4.93;;;1.48;;
53652;SDS011;39553;52.954;5.932;2022-07-06T00:25:47;5.88;;;1.67;;
53652;SDS011;39553;52.954;5.932;2022-07-06T00:28:14;2.28;;;1.20;;
53652;SDS011;39553;52.954;5.932;2022-07-06T00:30:40;4.35;;;1.80;;
53652;SDS011;39553;52.954;5.932;2022-07-06T00:33:06;7.55;;;2.00;;
53652;SDS011;39553;52.954;5.932;2022-07-06T00:35:32;8.60;;;2.42;;
53652;SDS011;39553;52.954;5.932;2022-07-06T00:37:58;5.88;;;2.40;;
53652;SDS011;39553;52.954;5.932;2022-07-06T00:40:24;4.88;;;2.45;;
53652;SDS011;39553;52.954;5.932;2022-07-06T00:42:49;6.90;;;1.65;;
53652;SDS011;39553;52.954;5.932;2022-07-06T00:45:17;5.88;;;1.55;;
53652;SDS011;39553;52.954;5.932;2022-07-06T00:47:44;7.25;;;1.25;;
53652;SDS011;39553;52.954;5.932;2022-07-06T00:50:11;5.82;;;1.05;;
53652;SDS011;39553;52.954;5.932;2022-07-06T00:52:39;6.10;;;1.55;;
53652;SDS011;39553;52.954;5.932;2022-07-06T00:55:09;1.98;;;0.90;;
53652;SDS011;39553;52.954;5.932;2022-07-06T00:57:36;3.95;;;1.20;;
53652;SDS011;39553;52.954;5.932;2022-07-06T01:00:05;6.82;;;1.80;;
53652;SDS011;39553;52.954;5.932;2022-07-06T01:02:34;6.75;;;1.85;;
53652;SDS011;39553;52.954;5.932;2022-07-06T01:05:01;3.17;;;1.20;;
53652;SDS011;39553;52.954;5.932;2022-07-06T01:07:28;3.03;;;1.20;;
53652;SDS011;39553;52.954;5.932;2022-07-06T01:09:55;10.45;;;1.55;;
53652;SDS011;39553;52.954;5.932;2022-07-06T01:12:21;3.13;;;0.88;;
53652;SDS011;39553;52.954;5.932;2022-07-06T01:14:48;2.30;;;0.90;;
53652;SDS011;39553;52.954;5.932;2022-07-06T01:17:15;5.57;;;1.30;;
53652;SDS011;39553;52.954;5.932;2022-07-06T01:19:41;3.78;;;1.00;;
53652;SDS011;39553;52.954;5.932;2022-07-06T01:22:08;5.75;;;1.00;;
53652;SDS011;39553;52.954;5.932;2022-07-06T01:24:34;2.55;;;0.90;;
53652;SDS011;39553;52.954;5.932;2022-07-06T01:27:01;2.88;;;1.13;;
53652;SDS011;39553;52.954;5.932;2022-07-06T01:29:28;4.88;;;1.35;;
53652;SDS011;39553;52.954;5.932;2022-07-06T01:31:54;4.22;;;1.00;;
53652;SDS011;39553;52.954;5.932;2022-07-06T01:34:21;4.90;;;1.20;;
53652;SDS011;39553;52.954;5.932;2022-07-06T01:36:47;4.43;;;1.00;;
53652;SDS011;39553;52.954;5.932;2022-07-06T01:39:12;3.83;;;0.90;;
53652;SDS011;39553;52.954;5.932;2022-07-06T01:41:38;4.45;;;1.10;;
53652;SDS011;39553;52.954;5.932;2022-07-06T01:44:04;2.22;;;1.00;;
53652;SDS011;39553;52.954;5.932;2022-07-06T01:46:30;5.57;;;1.00;;
53652;SDS011;39553;52.954;5.932;2022-07-06T01:48:56;1.95;;;0.80;;
53652;SDS011;39553;52.954;5.932;2022-07-06T01:51:22;8.23;;;2.03;;
53652;SDS011;39553;52.954;5.932;2022-07-06T01:53:49;5.07;;;0.95;;
53652;SDS011;39553;52.954;5.932;2022-07-06T01:56:16;1.95;;;0.80;;
53652;SDS011;39553;52.954;5.932;2022-07-06T01:58:45;4.20;;;0.88;;
53652;SDS011;39553;52.954;5.932;2022-07-06T02:01:12;2.85;;;0.88;;
53652;SDS011;39553;52.954;5.932;2022-07-06T02:03:40;2.95;;;1.10;;
53652;SDS011;39553;52.954;5.932;2022-07-06T02:06:06;1.80;;;0.80;;
53652;SDS011;39553;52.954;5.932;2022-07-06T02:08:33;5.00;;;1.30;;
53652;SDS011;39553;52.954;5.932;2022-07-06T02:10:59;2.40;;;1.02;;
53652;SDS011;39553;52.954;5.932;2022-07-06T02:13:25;4.10;;;1.00;;
53652;SDS011;39553;52.954;5.932;2022-07-06T02:15:51;1.90;;;1.08;;
53652;SDS011;39553;52.954;5.932;2022-07-06T02:18:17;2.13;;;0.93;;
53652;SDS011;39553;52.954;5.932;2022-07-06T02:20:43;2.85;;;1.10;;
53652;SDS011;39553;52.954;5.932;2022-07-06T02:23:09;5.45;;;1.40;;
53652;SDS011;39553;52.954;5.932;2022-07-06T02:25:35;5.57;;;1.27;;
53652;SDS011;39553;52.954;5.932;2022-07-06T02:28:00;5.35;;;0.80;;
53652;SDS011;39553;52.954;5.932;2022-07-06T02:30:26;2.65;;;0.80;;
53652;SDS011;39553;52.954;5.932;2022-07-06T02:32:52;2.85;;;1.50;;
53652;SDS011;39553;52.954;5.932;2022-07-06T02:35:17;3.72;;;1.10;;
53652;SDS011;39553;52.954;5.932;2022-07-06T02:37:43;9.57;;;1.67;;
53652;SDS011;39553;52.954;5.932;2022-07-06T02:40:09;2.40;;;1.20;;
53652;SDS011;39553;52.954;5.932;2022-07-06T02:42:35;5.20;;;1.52;;
53652;SDS011;39553;52.954;5.932;2022-07-06T02:45:01;8.80;;;1.85;;
53652;SDS011;39553;52.954;5.932;2022-07-06T02:47:27;6.53;;;2.72;;
53652;SDS011;39553;52.954;5.932;2022-07-06T02:49:53;5.60;;;2.20;;
53652;SDS011;39553;52.954;5.932;2022-07-06T02:52:19;4.10;;;2.17;;
53652;SDS011;39553;52.954;5.932;2022-07-06T02:54:44;7.15;;;1.80;;
53652;SDS011;39553;52.954;5.932;2022-07-06T02:57:10;9.20;;;1.20;;
53652;SDS011;39553;52.954;5.932;2022-07-06T02:59:36;3.63;;;1.05;;
53652;SDS011;39553;52.954;5.932;2022-07-06T03:02:06;4.93;;;1.40;;
53652;SDS011;39553;52.954;5.932;2022-07-06T03:04:32;2.97;;;0.90;;
53652;SDS011;39553;52.954;5.932;2022-07-06T03:06:58;4.03;;;1.20;;
53652;SDS011;39553;52.954;5.932;2022-07-06T03:09:24;3.58;;;1.02;;
53652;SDS011;39553;52.954;5.932;2022-07-06T03:11:50;3.65;;;0.90;;
53652;SDS011;39553;52.954;5.932;2022-07-06T03:14:16;1.85;;;1.00;;
53652;SDS011;39553;52.954;5.932;2022-07-06T03:16:42;3.28;;;0.90;;
53652;SDS011;39553;52.954;5.932;2022-07-06T03:19:08;7.00;;;1.00;;
53652;SDS011;39553;52.954;5.932;2022-07-06T03:21:33;1.27;;;1.00;;
53652;SDS011;39553;52.954;5.932;2022-07-06T03:23:59;3.67;;;0.82;;
53652;SDS011;39553;52.954;5.932;2022-07-06T03:26:25;8.73;;;1.48;;
53652;SDS011;39553;52.954;5.932;2022-07-06T03:28:51;3.40;;;1.00;;
53652;SDS011;39553;52.954;5.932;2022-07-06T03:31:17;2.33;;;0.90;;
53652;SDS011;39553;52.954;5.932;2022-07-06T03:33:42;2.40;;;0.95;;
53652;SDS011;39553;52.954;5.932;2022-07-06T03:36:08;3.42;;;0.90;;
53652;SDS011;39553;52.954;5.932;2022-07-06T03:38:34;4.13;;;1.13;;
53652;SDS011;39553;52.954;5.932;2022-07-06T03:41:00;7.03;;;1.45;;
53652;SDS011;39553;52.954;5.932;2022-07-06T03:43:26;3.05;;;1.50;;
53652;SDS011;39553;52.954;5.932;2022-07-06T03:45:52;4.50;;;1.25;;
53652;SDS011;39553;52.954;5.932;2022-07-06T03:48:17;4.53;;;1.25;;
53652;SDS011;39553;52.954;5.932;2022-07-06T03:50:43;5.30;;;1.15;;
53652;SDS011;39553;52.954;5.932;2022-07-06T03:53:09;3.00;;;1.23;;
53652;SDS011;39553;52.954;5.932;2022-07-06T03:55:35;6.90;;;1.20;;
53652;SDS011;39553;52.954;5.932;2022-07-06T03:58:00;5.57;;;2.03;;
53652;SDS011;39553;52.954;5.932;2022-07-06T04:00:26;13.05;;;2.55;;
53652;SDS011;39553;52.954;5.932;2022-07-06T04:02:52;4.03;;;1.40;;
53652;SDS011;39553;52.954;5.932;2022-07-06T04:05:18;3.97;;;1.20;;
53652;SDS011;39553;52.954;5.932;2022-07-06T04:07:46;5.25;;;1.55;;
53652;SDS011;39553;52.954;5.932;2022-07-06T04:10:13;4.00;;;1.60;;
53652;SDS011;39553;52.954;5.932;2022-07-06T04:12:43;2.55;;;1.00;;
53652;SDS011;39553;52.954;5.932;2022-07-06T04:15:10;7.05;;;1.67;;
53652;SDS011;39553;52.954;5.932;2022-07-06T04:17:37;9.80;;;4.25;;
53652;SDS011;39553;52.954;5.932;2022-07-06T04:20:19;8.75;;;3.63;;
53652;SDS011;39553;52.954;5.932;2022-07-06T04:22:45;7.30;;;4.35;;
53652;SDS011;39553;52.954;5.932;2022-07-06T04:25:12;7.45;;;3.47;;
53652;SDS011;39553;52.954;5.932;2022-07-06T04:27:38;6.05;;;2.67;;
53652;SDS011;39553;52.954;5.932;2022-07-06T04:30:04;5.68;;;1.60;;
53652;SDS011;39553;52.954;5.932;2022-07-06T04:32:31;3.95;;;1.25;;
53652;SDS011;39553;52.954;5.932;2022-07-06T04:34:56;3.53;;;1.23;;
53652;SDS011;39553;52.954;5.932;2022-07-06T04:37:22;3.13;;;1.15;;
53652;SDS011;39553;52.954;5.932;2022-07-06T04:39:48;1.70;;;0.90;;
53652;SDS011;39553;52.954;5.932;2022-07-06T04:42:14;6.82;;;1.80;;
53652;SDS011;39553;52.954;5.932;2022-07-06T04:44:40;5.38;;;1.00;;
53652;SDS011;39553;52.954;5.932;2022-07-06T04:47:06;4.20;;;1.30;;
53652;SDS011;39553;52.954;5.932;2022-07-06T04:49:31;4.55;;;1.30;;
53652;SDS011;39553;52.954;5.932;2022-07-06T04:51:57;1.77;;;0.93;;
53652;SDS011;39553;52.954;5.932;2022-07-06T04:54:23;4.80;;;1.10;;
53652;SDS011;39553;52.954;5.932;2022-07-06T04:56:49;6.60;;;1.20;;
53652;SDS011;39553;52.954;5.932;2022-07-06T04:59:17;1.83;;;0.80;;
53652;SDS011;39553;52.954;5.932;2022-07-06T05:01:43;3.70;;;1.77;;
53652;SDS011;39553;52.954;5.932;2022-07-06T05:04:09;4.15;;;1.67;;
53652;SDS011;39553;52.954;5.932;2022-07-06T05:06:35;3.25;;;1.05;;
53652;SDS011;39553;52.954;5.932;2022-07-06T05:09:00;2.97;;;1.25;;
53652;SDS011;39553;52.954;5.932;2022-07-06T05:11:26;1.80;;;0.90;;
53652;SDS011;39553;52.954;5.932;2022-07-06T05:13:52;2.63;;;0.75;;
53652;SDS011;39553;52.954;5.932;2022-07-06T05:16:19;4.07;;;1.00;;
53652;SDS011;39553;52.954;5.932;2022-07-06T05:18:45;3.92;;;1.17;;
53652;SDS011;39553;52.954;5.932;2022-07-06T05:21:11;7.30;;;1.27;;
53652;SDS011;39553;52.954;5.932;2022-07-06T05:23:37;2.03;;;1.30;;
53652;SDS011;39553;52.954;5.932;2022-07-06T05:26:03;2.58;;;1.00;;
53652;SDS011;39553;52.954;5.932;2022-07-06T05:28:29;5.30;;;2.72;;
53652;SDS011;39553;52.954;5.932;2022-07-06T05:30:54;4.53;;;1.38;;
53652;SDS011;39553;52.954;5.932;2022-07-06T05:33:20;3.97;;;1.20;;
53652;SDS011;39553;52.954;5.932;2022-07-06T05:35:46;2.60;;;0.68;;
53652;SDS011;39553;52.954;5.932;2022-07-06T05:38:12;3.92;;;0.80;;
53652;SDS011;39553;52.954;5.932;2022-07-06T05:40:37;3.10;;;0.90;;
53652;SDS011;39553;52.954;5.932;2022-07-06T05:43:03;4.60;;;0.90;;
53652;SDS011;39553;52.954;5.932;2022-07-06T05:45:30;1.08;;;0.70;;
53652;SDS011;39553;52.954;5.932;2022-07-06T05:47:56;3.75;;;0.90;;
53652;SDS011;39553;52.954;5.932;2022-07-06T05:50:40;2.50;;;0.98;;
53652;SDS011;39553;52.954;5.932;2022-07-06T05:53:06;3.30;;;1.00;;
53652;SDS011;39553;52.954;5.932;2022-07-06T05:55:32;3.58;;;1.00;;
53652;SDS011;39553;52.954;5.932;2022-07-06T05:57:58;4.00;;;0.80;;
53652;SDS011;39553;52.954;5.932;2022-07-06T06:00:27;4.15;;;1.42;;
53652;SDS011;39553;52.954;5.932;2022-07-06T06:02:53;4.18;;;0.80;;
53652;SDS011;39553;52.954;5.932;2022-07-06T06:05:20;4.50;;;1.02;;
53652;SDS011;39553;52.954;5.932;2022-07-06T06:07:46;3.95;;;0.93;;
53652;SDS011;39553;52.954;5.932;2022-07-06T06:10:13;2.88;;;1.08;;
53652;SDS011;39553;52.954;5.932;2022-07-06T06:12:40;3.22;;;0.80;;
53652;SDS011;39553;52.954;5.932;2022-07-06T06:15:07;1.23;;;0.70;;
53652;SDS011;39553;52.954;5.932;2022-07-06T06:17:33;3.45;;;0.82;;
53652;SDS011;39553;52.954;5.932;2022-07-06T06:20:01;3.50;;;0.98;;
53652;SDS011;39553;52.954;5.932;2022-07-06T06:22:27;2.60;;;0.70;;
53652;SDS011;39553;52.954;5.932;2022-07-06T06:24:53;4.50;;;0.52;;
53652;SDS011;39553;52.954;5.932;2022-07-06T06:27:19;1.38;;;1.02;;
53652;SDS011;39553;52.954;5.932;2022-07-06T06:29:45;3.85;;;1.00;;
53652;SDS011;39553;52.954;5.932;2022-07-06T06:32:11;2.40;;;0.80;;
53652;SDS011;39553;52.954;5.932;2022-07-06T06:34:38;1.40;;;0.80;;
53652;SDS011;39553;52.954;5.932;2022-07-06T06:37:04;7.50;;;1.00;;
53652;SDS011;39553;52.954;5.932;2022-07-06T06:39:30;5.03;;;1.15;;
53652;SDS011;39553;52.954;5.932;2022-07-06T06:41:56;3.70;;;0.75;;
53652;SDS011;39553;52.954;5.932;2022-07-06T06:44:22;2.55;;;0.63;;
53652;SDS011;39553;52.954;5.932;2022-07-06T06:46:48;1.45;;;0.85;;
53652;SDS011;39553;52.954;5.932;2022-07-06T06:49:15;2.75;;;0.60;;
53652;SDS011;39553;52.954;5.932;2022-07-06T06:51:41;2.00;;;0.80;;
53652;SDS011;39553;52.954;5.932;2022-07-06T06:54:07;1.60;;;0.60;;
53652;SDS011;39553;52.954;5.932;2022-07-06T06:56:33;1.88;;;0.82;;
53652;SDS011;39553;52.954;5.932;2022-07-06T06:58:58;2.05;;;0.85;;
53652;SDS011;39553;52.954;5.932;2022-07-06T07:01:26;5.43;;;0.95;;
53652;SDS011;39553;52.954;5.932;2022-07-06T07:03:52;4.22;;;0.80;;
53652;SDS011;39553;52.954;5.932;2022-07-06T07:06:18;1.92;;;1.00;;
53652;SDS011;39553;52.954;5.932;2022-07-06T07:08:43;1.00;;;0.47;;
53652;SDS011;39553;52.954;5.932;2022-07-06T07:11:09;1.45;;;0.60;;
53652;SDS011;39553;52.954;5.932;2022-07-06T07:13:35;2.75;;;0.75;;
53652;SDS011;39553;52.954;5.932;2022-07-06T07:16:00;2.92;;;0.55;;
53652;SDS011;39553;52.954;5.932;2022-07-06T07:18:26;2.88;;;0.90;;
53652;SDS011;39553;52.954;5.932;2022-07-06T07:20:52;2.00;;;0.50;;
53652;SDS011;39553;52.954;5.932;2022-07-06T07:23:18;3.20;;;0.70;;
53652;SDS011;39553;52.954;5.932;2022-07-06T07:25:43;1.40;;;0.60;;
53652;SDS011;39553;52.954;5.932;2022-07-06T07:28:09;2.97;;;0.65;;
53652;SDS011;39553;52.954;5.932;2022-07-06T07:30:35;1.85;;;0.60;;
53652;SDS011;39553;52.954;5.932;2022-07-06T07:33:01;4.63;;;0.88;;
53652;SDS011;39553;52.954;5.932;2022-07-06T07:35:27;1.42;;;0.63;;
53652;SDS011;39553;52.954;5.932;2022-07-06T07:37:53;2.80;;;0.90;;
53652;SDS011;39553;52.954;5.932;2022-07-06T07:40:19;2.63;;;0.88;;
53652;SDS011;39553;52.954;5.932;2022-07-06T07:42:45;5.95;;;0.80;;
53652;SDS011;39553;52.954;5.932;2022-07-06T07:45:11;1.33;;;0.90;;
53652;SDS011;39553;52.954;5.932;2022-07-06T07:47:37;1.90;;;0.80;;
53652;SDS011;39553;52.954;5.932;2022-07-06T07:50:03;0.77;;;0.45;;
53652;SDS011;39553;52.954;5.932;2022-07-06T07:52:30;1.23;;;0.75;;
53652;SDS011;39553;52.954;5.932;2022-07-06T07:54:56;2.45;;;0.52;;
53652;SDS011;39553;52.954;5.932;2022-07-06T07:57:22;2.05;;;0.52;;
53652;SDS011;39553;52.954;5.932;2022-07-06T07:59:48;2.88;;;1.05;;
53652;SDS011;39553;52.954;5.932;2022-07-06T08:02:14;1.20;;;0.70;;
53652;SDS011;39553;52.954;5.932;2022-07-06T08:04:40;3.00;;;0.70;;
53652;SDS011;39553;52.954;5.932;2022-07-06T08:07:06;2.25;;;0.50;;
53652;SDS011;39553;52.954;5.932;2022-07-06T08:09:32;0.95;;;0.60;;
53652;SDS011;39553;52.954;5.932;2022-07-06T08:11:58;3.47;;;0.80;;
53652;SDS011;39553;52.954;5.932;2022-07-06T08:14:24;4.13;;;0.85;;
53652;SDS011;39553;52.954;5.932;2022-07-06T08:16:50;2.60;;;0.95;;
53652;SDS011;39553;52.954;5.932;2022-07-06T08:19:16;1.88;;;1.17;;
53652;SDS011;39553;52.954;5.932;2022-07-06T08:21:42;5.50;;;0.70;;
53652;SDS011;39553;52.954;5.932;2022-07-06T08:24:08;3.35;;;0.63;;
53652;SDS011;39553;52.954;5.932;2022-07-06T08:26:34;5.35;;;1.08;;
53652;SDS011;39553;52.954;5.932;2022-07-06T08:29:00;1.13;;;0.43;;
53652;SDS011;39553;52.954;5.932;2022-07-06T08:31:26;4.90;;;0.93;;
53652;SDS011;39553;52.954;5.932;2022-07-06T08:33:52;1.02;;;0.50;;
53652;SDS011;39553;52.954;5.932;2022-07-06T08:36:19;3.28;;;1.17;;
53652;SDS011;39553;52.954;5.932;2022-07-06T08:38:46;2.33;;;0.85;;
53652;SDS011;39553;52.954;5.932;2022-07-06T08:41:13;2.22;;;0.70;;
53652;SDS011;39553;52.954;5.932;2022-07-06T08:43:40;2.60;;;0.52;;
53652;SDS011;39553;52.954;5.932;2022-07-06T08:46:06;1.27;;;0.60;;
53652;SDS011;39553;52.954;5.932;2022-07-06T08:48:36;2.25;;;0.82;;
53652;SDS011;39553;52.954;5.932;2022-07-06T08:51:05;2.83;;;1.00;;
53652;SDS011;39553;52.954;5.932;2022-07-06T08:53:32;4.22;;;0.82;;
53652;SDS011;39553;52.954;5.932;2022-07-06T08:55:58;1.77;;;0.52;;
53652;SDS011;39553;52.954;5.932;2022-07-06T08:58:25;3.50;;;0.93;;
53652;SDS011;39553;52.954;5.932;2022-07-06T09:00:55;2.45;;;0.85;;
53652;SDS011;39553;52.954;5.932;2022-07-06T09:03:22;3.85;;;1.05;;
53652;SDS011;39553;52.954;5.932;2022-07-06T09:05:49;2.40;;;0.70;;
53652;SDS011;39553;52.954;5.932;2022-07-06T09:08:17;4.90;;;0.95;;
53652;SDS011;39553;52.954;5.932;2022-07-06T09:10:43;1.60;;;0.75;;
53652;SDS011;39553;52.954;5.932;2022-07-06T09:13:09;2.47;;;0.60;;
53652;SDS011;39553;52.954;5.932;2022-07-06T09:15:36;1.23;;;0.50;;
53652;SDS011;39553;52.954;5.932;2022-07-06T09:18:06;2.25;;;0.80;;
53652;SDS011;39553;52.954;5.932;2022-07-06T09:20:32;0.93;;;0.60;;
53652;SDS011;39553;52.954;5.932;2022-07-06T09:23:03;4.22;;;0.80;;
53652;SDS011;39553;52.954;5.932;2022-07-06T09:25:30;2.95;;;0.80;;
53652;SDS011;39553;52.954;5.932;2022-07-06T09:27:57;6.07;;;0.82;;
53652;SDS011;39553;52.954;5.932;2022-07-06T09:30:24;5.15;;;0.75;;
53652;SDS011;39553;52.954;5.932;2022-07-06T09:32:54;2.53;;;0.85;;
53652;SDS011;39553;52.954;5.932;2022-07-06T09:38:07;3.63;;;0.90;;
53652;SDS011;39553;52.954;5.932;2022-07-06T09:40:35;1.80;;;0.70;;
53652;SDS011;39553;52.954;5.932;2022-07-06T09:43:15;2.10;;;0.73;;
53652;SDS011;39553;52.954;5.932;2022-07-06T09:45:45;3.17;;;0.90;;
53652;SDS011;39553;52.954;5.932;2022-07-06T09:48:14;1.70;;;0.80;;
53652;SDS011;39553;52.954;5.932;2022-07-06T09:53:20;1.52;;;0.77;;
53652;SDS011;39553;52.954;5.932;2022-07-06T09:55:47;1.90;;;0.60;;
53652;SDS011;39553;52.954;5.932;2022-07-06T09:58:15;2.35;;;0.77;;
53652;SDS011;39553;52.954;5.932;2022-07-06T10:00:42;0.60;;;0.40;;
53652;SDS011;39553;52.954;5.932;2022-07-06T10:03:09;6.43;;;0.77;;
53652;SDS011;39553;52.954;5.932;2022-07-06T10:05:40;1.80;;;0.80;;
53652;SDS011;39553;52.954;5.932;2022-07-06T10:08:08;3.35;;;0.70;;
53652;SDS011;39553;52.954;5.932;2022-07-06T10:10:35;0.63;;;0.50;;
53652;SDS011;39553;52.954;5.932;2022-07-06T10:13:02;2.03;;;0.43;;
53652;SDS011;39553;52.954;5.932;2022-07-06T10:15:31;1.02;;;0.50;;
53652;SDS011;39553;52.954;5.932;2022-07-06T10:18:02;1.90;;;0.73;;
53652;SDS011;39553;52.954;5.932;2022-07-06T10:20:31;2.38;;;1.00;;
53652;SDS011;39553;52.954;5.932;2022-07-06T10:22:59;3.20;;;0.63;;
53652;SDS011;39553;52.954;5.932;2022-07-06T10:25:26;2.33;;;0.65;;
53652;SDS011;39553;52.954;5.932;2022-07-06T10:27:52;0.70;;;0.52;;
53652;SDS011;39553;52.954;5.932;2022-07-06T10:30:18;1.30;;;0.70;;
53652;SDS011;39553;52.954;5.932;2022-07-06T10:32:46;2.70;;;0.60;;
53652;SDS011;39553;52.954;5.932;2022-07-06T10:35:18;1.80;;;0.73;;
53652;SDS011;39553;52.954;5.932;2022-07-06T10:37:45;1.25;;;0.55;;
53652;SDS011;39553;52.954;5.932;2022-07-06T10:40:31;1.63;;;0.75;;
53652;SDS011;39553;52.954;5.932;2022-07-06T10:43:19;1.30;;;0.50;;
53652;SDS011;39553;52.954;5.932;2022-07-06T10:50:40;2.47;;;0.65;;
53652;SDS011;39553;52.954;5.932;2022-07-06T10:55:50;0.77;;;0.50;;
53652;SDS011;39553;52.954;5.932;2022-07-06T11:16:37;1.85;;;0.75;;
53652;SDS011;39553;52.954;5.932;2022-07-06T11:19:05;3.05;;;0.85;;
53652;SDS011;39553;52.954;5.932;2022-07-06T11:21:40;2.95;;;0.60;;
53652;SDS011;39553;52.954;5.932;2022-07-06T11:24:10;1.00;;;0.60;;
53652;SDS011;39553;52.954;5.932;2022-07-06T11:26:38;1.48;;;0.47;;
53652;SDS011;39553;52.954;5.932;2022-07-06T11:29:06;1.10;;;0.70;;
53652;SDS011;39553;52.954;5.932;2022-07-06T11:31:34;3.80;;;0.60;;
53652;SDS011;39553;52.954;5.932;2022-07-06T11:34:06;2.08;;;0.73;;
53652;SDS011;39553;52.954;5.932;2022-07-06T11:36:33;3.50;;;0.75;;
53652;SDS011;39553;52.954;5.932;2022-07-06T11:38:59;1.70;;;0.75;;
53652;SDS011;39553;52.954;5.932;2022-07-06T11:41:25;1.33;;;0.65;;
53652;SDS011;39553;52.954;5.932;2022-07-06T11:43:51;1.30;;;0.50;;
53652;SDS011;39553;52.954;5.932;2022-07-06T11:48:57;1.23;;;0.68;;
53652;SDS011;39553;52.954;5.932;2022-07-06T11:51:25;1.67;;;0.60;;
53652;SDS011;39553;52.954;5.932;2022-07-06T11:53:53;2.53;;;0.70;;
53652;SDS011;39553;52.954;5.932;2022-07-06T11:56:21;3.85;;;1.27;;
53652;SDS011;39553;52.954;5.932;2022-07-06T11:58:50;1.35;;;0.80;;
53652;SDS011;39553;52.954;5.932;2022-07-06T12:01:17;2.17;;;0.80;;
53652;SDS011;39553;52.954;5.932;2022-07-06T12:03:43;1.23;;;0.95;;
53652;SDS011;39553;52.954;5.932;2022-07-06T12:06:28;0.68;;;0.50;;
53652;SDS011;39553;52.954;5.932;2022-07-06T12:08:55;0.85;;;0.60;;
53652;SDS011;39553;52.954;5.932;2022-07-06T12:11:27;1.83;;;0.60;;
53652;SDS011;39553;52.954;5.932;2022-07-06T12:13:58;0.75;;;0.60;;
53652;SDS011;39553;52.954;5.932;2022-07-06T12:16:37;1.42;;;0.60;;
53652;SDS011;39553;52.954;5.932;2022-07-06T12:19:04;3.30;;;0.70;;
53652;SDS011;39553;52.954;5.932;2022-07-06T12:21:31;2.00;;;0.70;;
53652;SDS011;39553;52.954;5.932;2022-07-06T12:23:58;2.35;;;0.95;;
53652;SDS011;39553;52.954;5.932;2022-07-06T12:26:25;1.98;;;0.95;;
53652;SDS011;39553;52.954;5.932;2022-07-06T12:28:59;1.60;;;0.77;;
53652;SDS011;39553;52.954;5.932;2022-07-06T12:31:32;1.52;;;0.70;;
53652;SDS011;39553;52.954;5.932;2022-07-06T12:34:01;0.65;;;0.57;;
53652;SDS011;39553;52.954;5.932;2022-07-06T12:36:28;1.35;;;0.60;;
53652;SDS011;39553;52.954;5.932;2022-07-06T12:38:54;2.65;;;0.90;;
53652;SDS011;39553;52.954;5.932;2022-07-06T12:41:27;1.80;;;0.70;;
53652;SDS011;39553;52.954;5.932;2022-07-06T12:44:07;1.67;;;0.65;;
53652;SDS011;39553;52.954;5.932;2022-07-06T12:46:37;1.50;;;1.13;;
53652;SDS011;39553;52.954;5.932;2022-07-06T12:49:20;2.03;;;0.50;;
53652;SDS011;39553;52.954;5.932;2022-07-06T12:54:16;0.85;;;0.60;;
53652;SDS011;39553;52.954;5.932;2022-07-06T12:59:31;0.95;;;0.75;;
53652;SDS011;39553;52.954;5.932;2022-07-06T13:01:58;1.95;;;0.75;;
53652;SDS011;39553;52.954;5.932;2022-07-06T13:04:24;1.67;;;0.85;;
53652;SDS011;39553;52.954;5.932;2022-07-06T13:06:51;0.68;;;0.68;;
53652;SDS011;39553;52.954;5.932;2022-07-06T13:09:18;2.83;;;0.88;;
53652;SDS011;39553;52.954;5.932;2022-07-06T13:11:47;5.38;;;0.90;;
53652;SDS011;39553;52.954;5.932;2022-07-06T13:14:14;2.17;;;0.82;;
53652;SDS011;39553;52.954;5.932;2022-07-06T13:16:41;0.95;;;0.65;;
53652;SDS011;39553;52.954;5.932;2022-07-06T13:19:08;4.80;;;0.90;;
53652;SDS011;39553;52.954;5.932;2022-07-06T13:21:34;1.60;;;0.80;;
53652;SDS011;39553;52.954;5.932;2022-07-06T13:24:00;4.47;;;1.00;;
53652;SDS011;39553;52.954;5.932;2022-07-06T13:26:26;3.22;;;1.05;;
53652;SDS011;39553;52.954;5.932;2022-07-06T13:28:52;3.53;;;0.75;;
53652;SDS011;39553;52.954;5.932;2022-07-06T13:31:18;2.03;;;1.00;;
53652;SDS011;39553;52.954;5.932;2022-07-06T13:33:44;1.67;;;0.90;;
53652;SDS011;39553;52.954;5.932;2022-07-06T13:36:09;3.45;;;1.00;;
53652;SDS011;39553;52.954;5.932;2022-07-06T13:38:35;1.83;;;0.88;;
53652;SDS011;39553;52.954;5.932;2022-07-06T13:41:01;3.38;;;0.90;;
53652;SDS011;39553;52.954;5.932;2022-07-06T13:43:27;2.88;;;1.00;;
53652;SDS011;39553;52.954;5.932;2022-07-06T13:46:02;1.90;;;0.73;;
53652;SDS011;39553;52.954;5.932;2022-07-06T13:48:32;2.45;;;0.82;;
53652;SDS011;39553;52.954;5.932;2022-07-06T13:50:58;3.03;;;1.15;;
53652;SDS011;39553;52.954;5.932;2022-07-06T13:53:24;2.92;;;1.02;;
53652;SDS011;39553;52.954;5.932;2022-07-06T13:55:50;2.38;;;0.70;;
53652;SDS011;39553;52.954;5.932;2022-07-06T13:58:16;4.70;;;1.00;;
53652;SDS011;39553;52.954;5.932;2022-07-06T14:00:42;1.45;;;0.70;;
53652;SDS011;39553;52.954;5.932;2022-07-06T14:03:08;4.40;;;0.85;;
53652;SDS011;39553;52.954;5.932;2022-07-06T14:05:34;1.40;;;1.00;;
53652;SDS011;39553;52.954;5.932;2022-07-06T14:08:00;5.07;;;1.00;;
53652;SDS011;39553;52.954;5.932;2022-07-06T14:10:26;2.30;;;0.88;;
53652;SDS011;39553;52.954;5.932;2022-07-06T14:12:52;1.13;;;0.70;;
53652;SDS011;39553;52.954;5.932;2022-07-06T14:15:18;4.82;;;1.20;;
53652;SDS011;39553;52.954;5.932;2022-07-06T14:17:45;4.38;;;0.80;;
53652;SDS011;39553;52.954;5.932;2022-07-06T14:20:12;3.60;;;1.15;;
53652;SDS011;39553;52.954;5.932;2022-07-06T14:22:39;1.58;;;0.98;;
53652;SDS011;39553;52.954;5.932;2022-07-06T14:25:04;5.60;;;1.27;;
53652;SDS011;39553;52.954;5.932;2022-07-06T14:27:32;2.92;;;1.20;;
53652;SDS011;39553;52.954;5.932;2022-07-06T14:29:58;1.58;;;1.00;;
53652;SDS011;39553;52.954;5.932;2022-07-06T14:32:24;1.90;;;0.98;;
53652;SDS011;39553;52.954;5.932;2022-07-06T14:34:49;3.33;;;1.30;;
53652;SDS011;39553;52.954;5.932;2022-07-06T14:37:15;2.80;;;1.00;;
53652;SDS011;39553;52.954;5.932;2022-07-06T14:39:41;0.75;;;0.63;;
53652;SDS011;39553;52.954;5.932;2022-07-06T14:42:07;2.72;;;0.93;;
53652;SDS011;39553;52.954;5.932;2022-07-06T14:44:33;1.42;;;0.95;;
53652;SDS011;39553;52.954;5.932;2022-07-06T14:46:59;4.40;;;0.90;;
53652;SDS011;39553;52.954;5.932;2022-07-06T14:49:24;3.78;;;1.08;;
53652;SDS011;39553;52.954;5.932;2022-07-06T14:51:50;6.90;;;1.20;;
53652;SDS011;39553;52.954;5.932;2022-07-06T14:54:16;3.65;;;1.70;;
53652;SDS011;39553;52.954;5.932;2022-07-06T14:56:42;5.35;;;1.58;;
53652;SDS011;39553;52.954;5.932;2022-07-06T14:59:08;6.75;;;1.42;;
53652;SDS011;39553;52.954;5.932;2022-07-06T15:01:33;4.00;;;1.58;;
53652;SDS011;39553;52.954;5.932;2022-07-06T15:03:59;5.30;;;1.45;;
53652;SDS011;39553;52.954;5.932;2022-07-06T15:06:25;4.07;;;1.48;;
53652;SDS011;39553;52.954;5.932;2022-07-06T15:08:51;1.55;;;1.27;;
53652;SDS011;39553;52.954;5.932;2022-07-06T15:11:16;3.85;;;1.58;;
53652;SDS011;39553;52.954;5.932;2022-07-06T15:13:42;6.80;;;1.83;;
53652;SDS011;39553;52.954;5.932;2022-07-06T15:16:08;2.17;;;1.45;;
53652;SDS011;39553;52.954;5.932;2022-07-06T15:18:33;3.80;;;1.85;;
53652;SDS011;39553;52.954;5.932;2022-07-06T15:21:00;3.53;;;1.92;;
53652;SDS011;39553;52.954;5.932;2022-07-06T15:23:27;4.82;;;2.10;;
53652;SDS011;39553;52.954;5.932;2022-07-06T15:25:53;3.60;;;1.65;;